Time;durP1;ratioP1;P1;durP2;ratioP2;P2;SDS_P1;SDS_P2;PMS_P1;PMS_P2;Temp;Humidity;BMP_temperature;BMP_pressure;BME280_temperature;BME280_humidity;BME280_pressure;Samples;Min_cycle;Max_cycle;Signal;HPM_P1;HPM_P2
2022/09/02 00:01:30;;;;;;;3.42;2.40;;;14.80;99.90;;;;;;6047629;23;20166;-82
2022/09/02 00:05:10;;;;;;;;;;;;;;;;;;;;;
2022/09/02 00:08:51;;;;;;;9.65;2.55;;;14.70;99.90;;;;;;6072409;23;20204;-80
2022/09/02 00:16:05;;;;;;;2.53;2.22;;;14.50;99.90;;;;;;5845521;24;20222;-82
2022/09/02 00:23:35;;;;;;;;;;;;;;;;;;;;;
2022/09/02 00:27:38;;;;;;;;;;;;;;;;;;;;;
2022/09/02 00:31:28;;;;;;;3.08;2.65;;;14.30;99.90;;;;;;5873340;24;20536;-85
2022/09/02 00:42:29;;;;;;;2.17;1.98;;;14.50;99.90;;;;;;5868406;24;20224;-80
2022/09/02 00:45:33;;;;;;;3.20;2.90;;;14.60;99.90;;;;;;5873763;24;20246;-80
2022/09/02 01:09:10;;;;;;;4.18;3.03;;;14.60;99.90;;;;;;5983653;24;20181;-84
2022/09/02 01:12:44;;;;;;;4.07;3.30;;;14.70;99.90;;;;;;5997704;23;20231;-82
2022/09/02 01:46:36;;;;;;;3.22;2.70;;;15.10;99.90;;;;;;5901504;24;20196;-82
2022/09/02 01:54:10;;;;;;;;;;;;;;;;;;;;;
2022/09/02 02:52:30;;;;;;;2.63;2.10;;;14.20;99.90;;;;;;5963379;24;20214;-84
2022/09/02 02:55:47;;;;;;;;;;;;;;;;;;;;;
2022/09/02 03:34:06;;;;;;;4.03;2.93;;;14.30;99.90;;;;;;5902389;22;5588461;-83
2022/09/02 03:53:38;;;;;;;;;;;;;;;;;;;;;
2022/09/02 04:04:48;;;;;;;5.15;2.38;;;14.70;99.90;;;;;;6004521;23;20185;-83
2022/09/02 04:19:45;;;;;;;3.10;2.22;;;13.90;99.90;;;;;;5913588;24;20180;-85
2022/09/02 05:58:57;;;;;;;5.37;3.30;;;14.50;99.90;;;;;;5128736;27;20549;-88
2022/09/02 06:01:28;;;;;;;4.37;1.77;;;15.70;99.90;;;;;;5109947;28;20438;-86
2022/09/02 06:03:56;;;;;;;2.47;2.27;;;15.60;99.90;;;;;;5102618;28;20452;-85
2022/09/02 06:06:23;;;;;;;4.43;3.50;;;15.90;99.90;;;;;;5108049;28;20530;-88
2022/09/02 06:08:51;;;;;;;7.30;5.47;;;16.50;99.90;;;;;;5102597;28;20545;-87
2022/09/02 06:11:18;;;;;;;2.60;2.40;;;16.70;99.90;;;;;;5102907;28;20506;-89
2022/09/02 06:13:45;;;;;;;4.47;2.77;;;16.70;99.90;;;;;;5110331;28;20437;-86
2022/09/02 06:16:18;;;;;;;2.57;2.37;;;16.70;99.90;;;;;;5115006;28;20497;-89
2022/09/02 06:18:49;;;;;;;6.67;2.77;;;16.60;99.90;;;;;;5101206;28;20515;-86
2022/09/02 06:21:19;;;;;;;3.10;1.77;;;16.70;99.90;;;;;;5108840;28;20431;-89
2022/09/02 06:23:47;;;;;;;5.20;2.47;;;16.70;99.90;;;;;;5107708;28;20431;-90
2022/09/02 06:26:18;;;;;;;2.87;2.03;;;16.70;99.90;;;;;;5109944;28;20438;-87
2022/09/02 06:28:45;;;;;;;2.20;1.90;;;17.10;99.90;;;;;;5115808;28;20473;-88
2022/09/02 06:31:16;;;;;;;1.97;1.83;;;17.20;99.90;;;;;;5114085;28;20439;-86
2022/09/02 06:33:44;;;;;;;7.73;2.97;;;17.30;99.90;;;;;;5109850;28;20494;-86
2022/09/02 06:36:15;;;;;;;3.43;2.20;;;17.50;99.90;;;;;;5105758;28;20506;-88
2022/09/02 06:38:44;;;;;;;6.87;2.77;;;17.80;99.90;;;;;;5109016;28;20505;-88
2022/09/02 06:41:21;;;;;;;2.63;2.43;;;18.30;99.90;;;;;;5113905;28;20486;-89
2022/09/02 06:43:50;;;;;;;16.40;4.33;;;18.90;99.90;;;;;;5110235;28;20419;-90
2022/09/02 06:46:23;;;;;;;6.30;2.30;;;19.50;99.90;;;;;;5104329;28;20421;-89
2022/09/02 06:48:50;;;;;;;4.10;1.73;;;19.70;99.90;;;;;;5097442;28;20510;-86
2022/09/02 06:51:27;;;;;;;3.30;2.07;;;19.50;99.90;;;;;;5115590;28;20434;-87
2022/09/02 06:53:55;;;;;;;3.37;1.83;;;20.10;99.90;;;;;;5110532;28;20488;-90
2022/09/02 06:56:23;;;;;;;2.93;1.93;;;21.00;99.90;;;;;;5325774;22;21560;-88
2022/09/02 06:58:49;;;;;;;2.70;2.10;;;22.60;99.90;;;;;;5338568;23;20552;-87
2022/09/02 07:06:44;;;;;;;6.70;2.20;;;25.20;99.90;;;;;;5266286;23;20542;-87
2022/09/02 07:09:14;;;;;;;2.70;2.50;;;26.30;99.90;;;;;;5126695;23;20554;-89
2022/09/02 07:11:46;;;;;;;4.07;2.63;;;27.70;99.90;;;;;;5043226;28;20437;-90
2022/09/02 07:14:15;;;;;;;5.03;3.33;;;29.10;99.90;;;;;;5253443;23;20490;-86
2022/09/02 07:16:51;;;;;;;2.60;2.40;;;29.20;97.70;;;;;;5020531;28;20841;-87
2022/09/02 07:19:20;;;;;;;2.13;1.93;;;29.00;97.10;;;;;;5335277;23;20475;-85
2022/09/02 07:21:48;;;;;;;1.63;1.53;;;28.50;97.60;;;;;;5278268;23;20539;-88
2022/09/02 07:26:55;;;;;;;5.83;2.27;;;31.30;93.20;;;;;;5100303;23;20495;-88
2022/09/02 07:37:22;;;;;;;3.67;1.90;;;30.00;93.00;;;;;;5819690;23;20751;-85
2022/09/02 07:42:25;;;;;;;1.60;1.50;;;29.30;91.40;;;;;;5386598;23;20459;-87
2022/09/02 07:47:28;;;;;;;4.43;1.90;;;29.50;91.30;;;;;;5288642;23;20478;-88
2022/09/02 07:49:58;;;;;;;2.40;1.73;;;29.70;90.10;;;;;;5679261;23;20480;-86
2022/09/02 07:55:21;;;;;;;2.13;1.60;;;28.00;92.00;;;;;;5049777;23;20539;-85
2022/09/02 08:19:17;;;;;;;2.27;1.77;;;29.20;85.70;;;;;;5303026;23;20571;-87
2022/09/02 08:21:44;;;;;;;1.33;1.23;;;30.20;82.00;;;;;;5396845;23;20493;-89
2022/09/02 08:26:46;;;;;;;2.50;1.73;;;29.30;85.70;;;;;;4959492;28;20516;-86
2022/09/02 08:32:03;;;;;;;2.07;1.30;;;29.20;83.10;;;;;;5323392;23;20486;-88
2022/09/02 08:34:33;;;;;;;1.00;0.90;;;28.10;83.20;;;;;;4972147;28;20465;-89
2022/09/02 08:37:01;;;;;;;1.40;1.30;;;26.90;86.40;;;;;;5297132;23;21719;-86
2022/09/02 08:39:27;;;;;;;2.30;1.40;;;27.10;87.30;;;;;;5097397;23;20500;-87
2022/09/02 08:42:04;;;;;;;1.80;1.07;;;27.30;88.70;;;;;;5002160;28;20445;-86
2022/09/02 08:44:36;;;;;;;1.23;0.90;;;28.20;84.70;;;;;;4999949;28;20445;-90
2022/09/02 08:49:50;;;;;;;2.63;1.27;;;28.00;86.00;;;;;;5190496;23;20743;-91
2022/09/02 08:52:38;;;;;;;1.23;1.10;;;28.80;83.40;;;;;;4959551;29;20440;-90
2022/09/02 08:55:09;;;;;;;4.00;1.20;;;28.90;80.10;;;;;;5331718;23;20439;-87
2022/09/02 08:57:36;;;;;;;1.93;0.90;;;30.00;77.70;;;;;;4977707;28;20412;-88
2022/09/02 09:00:10;;;;;;;2.87;1.20;;;29.40;77.60;;;;;;4979355;28;20437;-87
2022/09/02 09:05:32;;;;;;;1.20;0.97;;;28.30;81.00;;;;;;4973150;28;20439;-85
2022/09/02 09:08:21;;;;;;;1.07;1.03;;;27.20;81.30;;;;;;5322731;23;20478;-87
2022/09/02 09:10:59;;;;;;;2.40;1.10;;;26.90;83.10;;;;;;4996615;28;20734;-86
2022/09/02 09:13:39;;;;;;;2.13;1.13;;;27.80;81.60;;;;;;5230725;23;20517;-85
2022/09/02 09:16:22;;;;;;;1.30;0.90;;;27.30;80.10;;;;;;5138069;23;21262;-87
2022/09/02 09:18:58;;;;;;;2.93;1.07;;;27.10;80.40;;;;;;4958056;29;20418;-89
2022/09/02 09:21:25;;;;;;;1.93;1.23;;;25.60;84.60;;;;;;5335127;23;20509;-86
2022/09/02 09:23:54;;;;;;;2.73;1.23;;;25.80;84.90;;;;;;5001900;28;20479;-89
2022/09/02 09:26:27;;;;;;;0.93;0.80;;;24.50;88.10;;;;;;4985928;28;20778;-84
2022/09/02 09:28:58;;;;;;;1.43;1.33;;;22.80;91.70;;;;;;5098919;23;20587;-85
2022/09/02 09:34:13;;;;;;;1.10;1.00;;;21.40;94.70;;;;;;5104231;23;20514;-84
2022/09/02 09:36:41;;;;;;;1.10;1.00;;;21.60;95.10;;;;;;4997060;28;20456;-85
2022/09/02 09:39:29;;;;;;;0.90;0.90;;;21.50;94.70;;;;;;5001784;28;20440;-85
2022/09/02 09:42:17;;;;;;;3.70;1.90;;;21.10;95.70;;;;;;5028299;23;20480;-84
2022/09/02 09:44:47;;;;;;;3.47;1.30;;;21.00;96.60;;;;;;5474295;23;20446;-86
2022/09/02 09:47:18;;;;;;;2.20;1.17;;;21.30;96.30;;;;;;4968662;29;20462;-85
2022/09/02 09:49:48;;;;;;;2.47;1.30;;;21.30;96.40;;;;;;4968914;28;20453;-83
2022/09/02 09:52:28;;;;;;;1.33;1.03;;;21.60;96.60;;;;;;4952079;29;20427;-87
2022/09/02 09:55:23;;;;;;;1.00;0.90;;;21.30;97.40;;;;;;4970418;28;20433;-87
2022/09/02 10:00:26;;;;;;;1.40;1.13;;;20.20;97.70;;;;;;5274821;23;20480;-87
2022/09/02 10:08:02;;;;;;;0.87;0.70;;;21.70;97.60;;;;;;4967517;28;20456;-87
2022/09/02 10:10:38;;;;;;;0.87;0.87;;;21.30;97.30;;;;;;4970079;28;20671;-86
2022/09/02 10:13:21;;;;;;;1.13;0.67;;;21.20;95.50;;;;;;4965741;28;20578;-87
2022/09/02 10:16:15;;;;;;;1.80;1.10;;;21.00;96.70;;;;;;4968682;28;20468;-85
2022/09/02 10:19:05;;;;;;;1.17;1.10;;;21.20;97.00;;;;;;4956998;28;20554;-87
2022/09/02 10:22:07;;;;;;;1.30;1.20;;;21.40;96.00;;;;;;4965873;28;20680;-88
2022/09/02 10:27:45;;;;;;;0.97;0.90;;;21.80;95.60;;;;;;5135201;23;20497;-89
2022/09/02 10:32:59;;;;;;;1.00;0.90;;;22.60;94.40;;;;;;5237859;23;20499;-84
2022/09/02 10:35:50;;;;;;;0.90;0.90;;;22.50;94.60;;;;;;4991607;28;20445;-85
2022/09/02 10:38:36;;;;;;;2.10;1.20;;;22.30;94.80;;;;;;5016805;28;20447;-84
2022/09/02 10:44:09;;;;;;;1.00;0.80;;;21.80;95.60;;;;;;5013380;23;20470;-85
2022/09/02 10:47:03;;;;;;;1.40;1.30;;;22.00;94.80;;;;;;4988441;28;20642;-88
2022/09/02 10:49:39;;;;;;;2.00;0.90;;;21.80;94.30;;;;;;5202483;23;20831;-90
2022/09/02 10:52:24;;;;;;;0.90;0.90;;;22.10;93.90;;;;;;5015622;28;21004;-87
2022/09/02 10:54:58;;;;;;;4.77;1.40;;;22.20;93.10;;;;;;5002176;28;20643;-88
2022/09/02 10:57:32;;;;;;;1.23;1.13;;;22.30;93.30;;;;;;5013568;28;20438;-86
2022/09/02 11:00:10;;;;;;;0.97;0.87;;;22.00;92.40;;;;;;5016779;28;20433;-87
2022/09/02 11:02:48;;;;;;;2.30;1.23;;;22.00;92.30;;;;;;5082043;23;20522;-87
2022/09/02 11:05:27;;;;;;;0.80;0.70;;;22.00;92.20;;;;;;4967813;28;20451;-83
2022/09/02 11:08:02;;;;;;;1.60;1.17;;;22.00;93.40;;;;;;4977762;28;20486;-86
2022/09/02 11:10:40;;;;;;;1.97;1.20;;;21.80;93.40;;;;;;4985111;28;20423;-84
2022/09/02 11:13:24;;;;;;;1.20;1.10;;;22.00;93.40;;;;;;4965934;28;20496;-85
2022/09/02 11:16:00;;;;;;;1.67;0.90;;;21.80;93.80;;;;;;4968285;28;20548;-89
2022/09/02 11:18:47;;;;;;;1.47;1.20;;;21.20;95.00;;;;;;4973187;28;20469;-84
2022/09/02 11:21:20;;;;;;;1.33;0.97;;;21.00;95.40;;;;;;5144136;23;20499;-85
2022/09/02 11:23:58;;;;;;;0.70;0.70;;;20.90;95.00;;;;;;5036689;23;20723;-85
2022/09/02 11:26:37;;;;;;;1.10;0.90;;;20.80;93.30;;;;;;5189496;23;20509;-86
2022/09/02 11:34:25;;;;;;;1.10;0.80;;;21.10;93.70;;;;;;5473084;23;20493;-83
2022/09/02 11:36:52;;;;;;;8.70;1.20;;;21.20;93.90;;;;;;4961514;29;20418;-86
2022/09/02 11:39:38;;;;;;;2.30;1.10;;;20.80;94.70;;;;;;5336661;23;20698;-87
2022/09/02 11:43:01;;;;;;;1.70;1.50;;;21.00;94.90;;;;;;4931905;29;20443;-86
2022/09/02 11:45:33;;;;;;;1.57;1.07;;;21.20;95.50;;;;;;4935033;29;20460;-87
2022/09/02 11:51:01;;;;;;;1.17;0.93;;;21.40;93.80;;;;;;5164061;23;20567;-86
2022/09/02 11:56:19;;;;;;;1.07;1.00;;;22.30;92.40;;;;;;4946847;28;20532;-84
2022/09/02 11:58:50;;;;;;;0.87;0.70;;;22.10;92.80;;;;;;4957757;29;20410;-85
2022/09/02 12:01:32;;;;;;;0.70;0.70;;;21.80;93.50;;;;;;4957801;29;20451;-86
2022/09/02 12:04:04;;;;;;;1.23;0.83;;;21.50;93.30;;;;;;4956359;29;20507;-85
2022/09/02 12:07:06;;;;;;;0.63;0.60;;;21.10;94.40;;;;;;4948045;29;20462;-88
2022/09/02 12:09:53;;;;;;;1.07;0.90;;;20.50;94.40;;;;;;4953978;29;20471;-89
2022/09/02 12:15:01;;;;;;;2.43;1.53;;;20.50;95.10;;;;;;5254032;23;20475;-83
2022/09/02 12:20:07;;;;;;;1.40;1.30;;;20.80;95.80;;;;;;5091572;23;20520;-86
2022/09/02 12:22:39;;;;;;;0.83;0.80;;;20.90;95.60;;;;;;5018999;28;20817;-88
2022/09/02 12:25:32;;;;;;;1.70;0.90;;;21.00;93.20;;;;;;5215082;23;20481;-83
2022/09/02 12:31:06;;;;;;;2.80;1.27;;;21.30;92.50;;;;;;4980690;28;20520;-89
2022/09/02 12:33:38;;;;;;;2.57;2.37;;;21.70;91.80;;;;;;5481253;23;20458;-86
2022/09/02 12:36:08;;;;;;;2.60;1.40;;;22.20;91.10;;;;;;5394735;23;20545;-85
2022/09/02 12:38:39;;;;;;;1.10;1.00;;;22.80;91.30;;;;;;4967990;28;20469;-87
2022/09/02 12:41:18;;;;;;;3.27;0.73;;;22.90;89.60;;;;;;4945766;28;20458;-86
2022/09/02 12:44:05;;;;;;;2.33;1.80;;;22.60;89.40;;;;;;4964212;28;20399;-90
2022/09/02 12:46:35;;;;;;;1.43;0.93;;;22.50;89.30;;;;;;5135454;23;20497;-84
2022/09/02 12:49:28;;;;;;;1.90;1.10;;;22.30;90.30;;;;;;4978511;28;20494;-88
2022/09/02 12:52:10;;;;;;;1.20;1.10;;;21.50;91.60;;;;;;4986851;28;20465;-85
2022/09/02 12:54:48;;;;;;;1.07;0.93;;;21.10;93.30;;;;;;4988527;28;20458;-83
2022/09/02 12:57:17;;;;;;;2.40;0.90;;;21.00;93.90;;;;;;4989844;28;20454;-87
2022/09/02 12:59:46;;;;;;;2.20;1.43;;;20.80;94.90;;;;;;5003494;28;20417;-84
2022/09/02 13:02:41;;;;;;;1.10;1.00;;;20.60;95.60;;;;;;4997032;28;20552;-85
2022/09/02 13:05:30;;;;;;;1.20;1.10;;;20.70;96.30;;;;;;4990133;28;20424;-84
2022/09/02 13:08:19;;;;;;;1.50;1.40;;;20.90;96.10;;;;;;5276352;23;20484;-89
2022/09/02 13:14:06;;;;;;;1.20;1.00;;;21.80;95.00;;;;;;3545256;23;20501;-86
2022/09/02 13:17:18;;;;;;;2.13;1.40;;;21.70;94.50;;;;;;4976077;28;20428;-85
2022/09/02 13:23:04;;;;;;;1.10;1.00;;;21.00;97.00;;;;;;5175699;23;20738;-89
2022/09/02 13:25:50;;;;;;;1.40;1.20;;;21.20;97.20;;;;;;4944964;29;20445;-87
2022/09/02 13:28:38;;;;;;;3.70;1.10;;;20.70;95.70;;;;;;4948040;29;20486;-85
2022/09/02 13:31:21;;;;;;;1.63;0.90;;;20.30;95.20;;;;;;4944554;29;20655;-89
2022/09/02 13:34:00;;;;;;;1.10;1.00;;;20.20;96.00;;;;;;4945241;28;20452;-86
2022/09/02 13:42:16;;;;;;;1.00;0.90;;;20.10;97.50;;;;;;5223201;23;20514;-86
2022/09/02 13:44:45;;;;;;;0.97;0.97;;;20.70;96.30;;;;;;5397293;23;20488;-88
2022/09/02 13:47:20;;;;;;;5.90;1.00;;;21.20;95.70;;;;;;5334942;23;20557;-86
2022/09/02 13:49:50;;;;;;;1.10;1.00;;;21.80;94.60;;;;;;5070415;23;21875;-87
2022/09/02 13:52:22;;;;;;;1.20;1.10;;;22.10;92.60;;;;;;4943550;29;20458;-88
2022/09/02 13:55:12;;;;;;;2.10;1.40;;;22.30;93.70;;;;;;5076856;23;20811;-84
2022/09/02 13:57:45;;;;;;;1.70;1.43;;;22.50;94.10;;;;;;5313876;23;20469;-84
2022/09/02 14:03:00;;;;;;;1.30;1.13;;;22.00;94.60;;;;;;5205973;23;20477;-87
2022/09/02 14:05:32;;;;;;;2.00;1.07;;;21.40;95.10;;;;;;4986360;28;20424;-86
2022/09/02 14:08:02;;;;;;;1.13;1.03;;;21.20;95.60;;;;;;4979741;28;20450;-85
2022/09/02 14:10:33;;;;;;;2.07;1.20;;;20.70;96.50;;;;;;5066097;23;20559;-84
2022/09/02 14:13:03;;;;;;;2.53;1.20;;;20.70;97.10;;;;;;5006407;28;20413;-87
2022/09/02 14:15:32;;;;;;;1.40;1.00;;;20.90;97.30;;;;;;5380198;23;20708;-88
2022/09/02 14:18:34;;;;;;;1.10;1.00;;;21.00;96.50;;;;;;5156147;23;20503;-88
2022/09/02 14:21:17;;;;;;;1.03;0.93;;;21.10;95.10;;;;;;4937550;28;20399;-90
2022/09/02 14:23:51;;;;;;;1.73;1.63;;;21.10;95.60;;;;;;4976084;28;20440;-88
2022/09/02 14:26:39;;;;;;;1.87;1.10;;;21.10;95.90;;;;;;4978437;28;20419;-87
2022/09/02 14:29:20;;;;;;;1.33;0.90;;;21.20;96.50;;;;;;5097775;23;20505;-85
2022/09/02 14:32:07;;;;;;;1.70;1.30;;;21.10;96.20;;;;;;5203398;23;20562;-83
2022/09/02 14:34:39;;;;;;;1.47;1.10;;;21.10;96.50;;;;;;4989287;28;20640;-90
2022/09/02 14:37:28;;;;;;;1.23;0.93;;;21.20;96.20;;;;;;4975703;28;20457;-89
2022/09/02 14:40:09;;;;;;;1.27;1.07;;;21.10;95.90;;;;;;5239460;23;20495;-89
2022/09/02 14:42:50;;;;;;;1.87;0.90;;;21.30;95.50;;;;;;5016285;28;20457;-87
2022/09/02 14:45:46;;;;;;;1.50;0.93;;;21.20;95.30;;;;;;5236717;23;20505;-88
2022/09/02 14:48:22;;;;;;;3.17;1.30;;;20.80;96.30;;;;;;4989160;28;20494;-84
2022/09/02 14:50:58;;;;;;;1.80;1.37;;;20.60;97.10;;;;;;5071295;23;20505;-88
2022/09/02 14:53:28;;;;;;;2.20;1.20;;;20.50;97.10;;;;;;4947632;29;20423;-86
2022/09/02 14:55:59;;;;;;;1.43;1.30;;;20.50;98.00;;;;;;4943227;29;20595;-89
2022/09/02 14:58:27;;;;;;;4.00;1.20;;;20.50;97.70;;;;;;5519316;23;21419;-89
2022/09/02 15:03:39;;;;;;;4.13;1.17;;;21.20;97.10;;;;;;5232892;23;20497;-85
2022/09/02 15:06:06;;;;;;;1.23;1.13;;;21.10;96.60;;;;;;5183052;23;21877;-86
2022/09/02 15:11:19;;;;;;;1.43;1.33;;;21.10;97.20;;;;;;5099714;23;20541;-86
2022/09/02 15:13:48;;;;;;;1.10;1.00;;;20.90;97.20;;;;;;4954140;28;20444;-87
2022/09/02 15:16:15;;;;;;;1.20;1.10;;;20.60;97.80;;;;;;4968390;28;20480;-86
2022/09/02 15:18:42;;;;;;;1.27;1.00;;;20.50;97.80;;;;;;4961568;28;20453;-85
2022/09/02 15:21:11;;;;;;;1.77;1.13;;;20.30;98.30;;;;;;4951061;29;20479;-87
2022/09/02 15:23:39;;;;;;;3.60;0.97;;;20.20;99.10;;;;;;4972591;28;20459;-88
2022/09/02 15:26:07;;;;;;;2.00;1.27;;;20.20;99.40;;;;;;4951974;29;20438;-83
2022/09/02 15:28:34;;;;;;;1.67;1.40;;;20.00;99.30;;;;;;4969015;28;20469;-83
2022/09/02 15:31:01;;;;;;;2.87;1.10;;;20.00;99.30;;;;;;5085656;23;20761;-87
2022/09/02 15:33:30;;;;;;;2.20;1.57;;;20.10;99.70;;;;;;5005821;28;20473;-88
2022/09/02 15:41:22;;;;;;;1.30;1.20;;;20.20;99.70;;;;;;5314200;23;20515;-88
2022/09/02 15:43:52;;;;;;;3.73;1.83;;;20.10;99.20;;;;;;5211983;23;20580;-84
2022/09/02 15:46:31;;;;;;;2.20;1.93;;;20.00;99.70;;;;;;5146432;23;20483;-88
2022/09/02 15:49:03;;;;;;;5.73;3.07;;;20.10;99.50;;;;;;5174642;23;21458;-87
2022/09/02 15:51:34;;;;;;;1.60;1.50;;;20.10;99.30;;;;;;4949660;28;20791;-88
2022/09/02 15:54:04;;;;;;;1.00;1.00;;;20.00;99.80;;;;;;4961572;28;20471;-88
2022/09/02 15:56:33;;;;;;;1.40;1.30;;;19.80;99.90;;;;;;5092810;23;20580;-84
2022/09/02 16:01:45;;;;;;;1.47;1.37;;;19.70;99.90;;;;;;5478619;23;20537;-88
2022/09/02 16:04:13;;;;;;;3.50;1.30;;;19.60;99.90;;;;;;5245958;23;20497;-85
2022/09/02 16:11:59;;;;;;;1.20;1.10;;;19.40;99.90;;;;;;5118666;23;20518;-90
2022/09/02 16:17:09;;;;;;;1.97;1.70;;;19.20;99.90;;;;;;4965306;28;20487;-85
2022/09/02 16:19:36;;;;;;;2.07;1.33;;;19.20;99.90;;;;;;5403609;23;20490;-86
2022/09/02 16:22:03;;;;;;;1.30;1.20;;;19.30;99.90;;;;;;5330806;23;20433;-86
2022/09/02 16:24:30;;;;;;;2.37;1.40;;;19.30;99.90;;;;;;4961036;28;20794;-85
2022/09/02 16:29:26;;;;;;;1.80;1.37;;;19.30;99.90;;;;;;4997724;23;21544;-83
2022/09/02 16:31:54;;;;;;;3.50;2.17;;;19.40;99.90;;;;;;5300512;23;20549;-86
2022/09/02 16:37:25;;;;;;;1.53;1.43;;;19.50;99.90;;;;;;5721078;23;20553;-88
2022/09/02 16:39:52;;;;;;;1.23;1.03;;;19.60;99.90;;;;;;5055291;23;20523;-86
2022/09/02 16:42:19;;;;;;;1.43;1.33;;;19.50;99.90;;;;;;5050968;23;20557;-84
2022/09/02 16:44:50;;;;;;;1.57;1.20;;;19.50;99.90;;;;;;5091029;23;20508;-87
2022/09/02 16:52:46;;;;;;;1.10;1.00;;;19.20;99.90;;;;;;5539888;23;20525;-83
2022/09/02 17:00:19;;;;;;;1.77;1.57;;;19.20;99.90;;;;;;5158188;23;20472;-85
2022/09/02 17:02:46;;;;;;;3.97;1.57;;;19.10;99.90;;;;;;4968931;28;20506;-85
2022/09/02 17:05:16;;;;;;;1.27;1.17;;;19.20;99.90;;;;;;4968066;28;20452;-86
2022/09/02 17:07:44;;;;;;;4.10;1.20;;;19.00;99.90;;;;;;5206782;23;20494;-87
2022/09/02 17:12:38;;;;;;;3.73;1.00;;;18.90;99.90;;;;;;4910064;29;20543;-86
2022/09/02 17:15:09;;;;;;;3.53;1.53;;;19.00;99.90;;;;;;5152869;23;20500;-90
2022/09/02 17:17:38;;;;;;;2.40;1.20;;;18.90;99.90;;;;;;5007347;28;20454;-86
2022/09/02 17:20:06;;;;;;;4.23;1.50;;;18.80;99.90;;;;;;5009499;28;20440;-86
2022/09/02 17:22:35;;;;;;;1.60;1.20;;;18.70;99.90;;;;;;4986729;28;20455;-88
2022/09/02 17:25:02;;;;;;;2.93;1.30;;;18.60;99.90;;;;;;4985333;28;20445;-87
2022/09/02 17:27:28;;;;;;;1.80;1.60;;;18.60;99.90;;;;;;4996160;28;20451;-81
2022/09/02 17:29:56;;;;;;;1.60;1.23;;;18.40;99.90;;;;;;4987020;28;20484;-83
2022/09/02 17:32:24;;;;;;;1.60;1.50;;;18.40;99.90;;;;;;4994736;28;20453;-85
2022/09/02 17:34:54;;;;;;;1.10;1.00;;;18.30;99.90;;;;;;4993604;28;20455;-85
2022/09/02 17:37:21;;;;;;;1.70;1.60;;;18.20;99.90;;;;;;4989219;28;20643;-83
2022/09/02 17:39:48;;;;;;;2.00;1.60;;;18.20;99.90;;;;;;4998659;28;20698;-83
2022/09/02 17:42:16;;;;;;;5.47;1.47;;;18.10;99.90;;;;;;5013200;28;20602;-85
2022/09/02 17:44:43;;;;;;;1.60;1.50;;;18.00;99.90;;;;;;5012844;28;20477;-85
2022/09/02 17:47:19;;;;;;;2.23;1.53;;;18.10;99.90;;;;;;5017578;28;20530;-85
2022/09/02 17:49:46;;;;;;;1.17;1.10;;;18.00;99.90;;;;;;4998377;28;20466;-84
2022/09/02 17:52:17;;;;;;;2.60;1.50;;;18.00;99.90;;;;;;4993225;28;20448;-83
2022/09/02 17:54:47;;;;;;;1.43;1.33;;;18.00;99.90;;;;;;4999474;28;20437;-85
2022/09/02 17:57:33;;;;;;;1.60;1.50;;;17.90;99.90;;;;;;4990031;28;20468;-85
2022/09/02 18:00:14;;;;;;;1.40;1.30;;;17.80;99.90;;;;;;5008289;28;20477;-85
2022/09/02 18:02:57;;;;;;;1.57;1.47;;;17.90;99.90;;;;;;5003501;28;20503;-84
2022/09/02 18:06:02;;;;;;;2.67;1.80;;;17.80;99.90;;;;;;5003666;28;20859;-87
2022/09/02 18:08:53;;;;;;;4.60;1.37;;;17.70;99.90;;;;;;4979381;28;20446;-81
2022/09/02 18:11:21;;;;;;;1.67;1.37;;;17.70;99.90;;;;;;4995377;28;20498;-84
2022/09/02 18:14:10;;;;;;;2.00;1.80;;;17.60;99.90;;;;;;4998514;28;20456;-84
2022/09/02 18:16:39;;;;;;;1.80;1.50;;;17.60;99.90;;;;;;4996812;28;20463;-85
2022/09/02 18:19:20;;;;;;;2.30;2.00;;;17.50;99.90;;;;;;5012379;28;20431;-84
2022/09/02 18:24:53;;;;;;;2.20;2.07;;;17.40;99.90;;;;;;5210517;23;20530;-84
2022/09/02 18:27:52;;;;;;;3.53;1.80;;;17.30;99.90;;;;;;4962540;28;20433;-86
2022/09/02 18:30:37;;;;;;;1.37;1.27;;;17.30;99.90;;;;;;4977619;28;20490;-84
2022/09/02 18:33:15;;;;;;;2.50;2.23;;;17.50;99.90;;;;;;4978806;28;20632;-82
2022/09/02 18:36:07;;;;;;;3.90;2.30;;;17.50;99.90;;;;;;4961862;28;20510;-84
2022/09/02 18:39:18;;;;;;;2.33;2.07;;;17.40;99.90;;;;;;4975984;28;20432;-87
2022/09/02 18:42:24;;;;;;;4.77;2.40;;;17.40;99.90;;;;;;4978419;28;20422;-85
2022/09/02 18:45:34;;;;;;;2.13;1.73;;;17.40;99.90;;;;;;4980892;28;20510;-85
2022/09/02 18:48:06;;;;;;;4.10;2.10;;;17.30;99.90;;;;;;4969562;28;20452;-84
2022/09/02 18:50:41;;;;;;;2.70;2.30;;;17.30;99.90;;;;;;4976804;28;20482;-82
2022/09/02 18:53:22;;;;;;;3.27;2.40;;;17.20;99.90;;;;;;4977788;28;20476;-86
2022/09/02 18:55:51;;;;;;;3.70;2.43;;;17.30;99.90;;;;;;4974971;28;20436;-86
2022/09/02 18:58:38;;;;;;;5.93;2.20;;;17.30;99.90;;;;;;4975720;28;20448;-81
2022/09/02 19:01:22;;;;;;;2.67;2.47;;;17.10;99.90;;;;;;4980094;28;20416;-85
2022/09/02 19:03:49;;;;;;;3.73;2.87;;;17.20;99.90;;;;;;4983066;28;20485;-83
2022/09/02 19:06:33;;;;;;;3.07;2.77;;;17.10;99.90;;;;;;4986350;28;20446;-82
2022/09/02 19:09:10;;;;;;;2.57;2.17;;;17.20;99.90;;;;;;4983772;28;20436;-81
2022/09/02 19:11:39;;;;;;;2.20;2.00;;;17.40;99.90;;;;;;4987935;28;20720;-82
2022/09/02 19:14:25;;;;;;;4.87;2.87;;;17.40;99.90;;;;;;4982856;28;20476;-83
2022/09/02 19:16:52;;;;;;;3.00;2.70;;;17.30;99.90;;;;;;4983488;28;20432;-84
2022/09/02 19:19:20;;;;;;;4.90;2.27;;;17.30;99.90;;;;;;4984269;28;20448;-84
2022/09/02 19:21:53;;;;;;;3.27;2.90;;;17.20;99.90;;;;;;4977924;28;20458;-82
2022/09/02 19:24:32;;;;;;;4.20;3.20;;;17.30;99.90;;;;;;4961697;28;20635;-85
2022/09/02 19:27:19;;;;;;;4.20;2.60;;;17.20;99.90;;;;;;4978393;28;20473;-84
2022/09/02 19:29:50;;;;;;;3.47;2.53;;;17.20;99.90;;;;;;4974402;28;20458;-84
2022/09/02 19:32:23;;;;;;;5.50;3.37;;;17.10;99.90;;;;;;4967221;28;20517;-85
2022/09/02 19:34:51;;;;;;;3.00;2.67;;;16.90;99.90;;;;;;4979347;28;20455;-85
2022/09/02 19:37:18;;;;;;;5.20;2.20;;;17.00;99.90;;;;;;4960983;28;20503;-86
2022/09/02 19:39:49;;;;;;;3.27;2.13;;;16.80;99.90;;;;;;4980967;28;20452;-82
2022/09/02 19:42:19;;;;;;;5.20;2.10;;;16.70;99.90;;;;;;4988531;28;20445;-79
2022/09/02 19:44:49;;;;;;;4.90;2.93;;;16.80;99.90;;;;;;4991970;28;20428;-81
2022/09/02 19:47:18;;;;;;;3.60;2.30;;;16.50;99.90;;;;;;4989060;28;20442;-81
2022/09/02 19:50:06;;;;;;;3.13;2.90;;;16.50;99.90;;;;;;4982310;28;21155;-82
2022/09/02 19:52:44;;;;;;;4.50;1.93;;;16.50;99.90;;;;;;4981305;28;20783;-85
2022/09/02 19:55:14;;;;;;;2.40;2.20;;;16.40;99.90;;;;;;4980800;28;20437;-85
2022/09/02 19:57:42;;;;;;;2.63;2.13;;;16.40;99.90;;;;;;4984174;28;20519;-84
2022/09/02 20:00:12;;;;;;;3.63;2.10;;;16.40;99.90;;;;;;4987965;28;20514;-83
2022/09/02 20:02:39;;;;;;;2.03;1.80;;;16.50;99.90;;;;;;4983151;28;20452;-84
2022/09/02 20:05:07;;;;;;;1.93;1.83;;;16.40;99.90;;;;;;4977750;28;20871;-83
2022/09/02 20:07:35;;;;;;;2.97;2.40;;;16.30;99.90;;;;;;4976175;28;20798;-84
2022/09/02 20:10:03;;;;;;;2.33;2.13;;;16.30;99.90;;;;;;4978042;28;20476;-82
2022/09/02 20:12:32;;;;;;;3.87;1.97;;;16.30;99.90;;;;;;4979239;28;20481;-85
2022/09/02 20:14:59;;;;;;;6.37;2.50;;;16.30;99.90;;;;;;4976869;28;20476;-82
2022/09/02 20:17:27;;;;;;;2.40;2.20;;;16.20;99.90;;;;;;4983112;28;20508;-86
2022/09/02 20:19:55;;;;;;;2.20;2.00;;;16.10;99.90;;;;;;4985657;28;20453;-80
2022/09/02 20:22:22;;;;;;;2.90;2.40;;;16.10;99.90;;;;;;4974319;28;21115;-84
2022/09/02 20:24:48;;;;;;;2.70;1.83;;;16.10;99.90;;;;;;4988814;28;20462;-80
2022/09/02 20:27:41;;;;;;;3.83;2.30;;;16.10;99.90;;;;;;4981879;28;20454;-84
2022/09/02 20:30:16;;;;;;;2.37;2.10;;;16.20;99.90;;;;;;4973155;28;20527;-84
2022/09/02 20:32:49;;;;;;;2.97;1.87;;;16.10;99.90;;;;;;4969823;28;20862;-81
2022/09/02 20:35:19;;;;;;;2.97;2.50;;;16.10;99.90;;;;;;4969189;28;20491;-83
2022/09/02 20:37:53;;;;;;;2.77;2.43;;;15.90;99.90;;;;;;4975271;28;20439;-84
2022/09/02 20:40:44;;;;;;;2.63;2.40;;;16.10;99.90;;;;;;4971209;28;20460;-81
2022/09/02 20:43:46;;;;;;;2.37;1.93;;;16.10;99.90;;;;;;4970290;28;20795;-84
2022/09/02 20:46:57;;;;;;;4.73;2.53;;;16.10;99.90;;;;;;4982148;28;20459;-85
2022/09/02 20:49:59;;;;;;;2.10;1.67;;;16.10;99.90;;;;;;4978220;28;20445;-86
2022/09/02 20:53:03;;;;;;;2.73;2.30;;;16.10;99.90;;;;;;4981421;28;20452;-81
2022/09/02 20:55:49;;;;;;;3.73;2.00;;;16.10;99.90;;;;;;4976144;28;20525;-83
2022/09/02 20:58:37;;;;;;;3.33;1.93;;;16.10;99.90;;;;;;4995980;28;20440;-82
2022/09/02 21:01:05;;;;;;;7.23;2.40;;;16.00;99.90;;;;;;4994620;28;20439;-80
2022/09/02 21:03:49;;;;;;;2.37;1.90;;;16.00;99.90;;;;;;4988525;28;20510;-83
2022/09/02 21:06:21;;;;;;;2.80;1.43;;;16.00;99.90;;;;;;4982353;28;20512;-81
2022/09/02 21:09:11;;;;;;;3.00;2.70;;;16.00;99.90;;;;;;4983825;28;20511;-80
2022/09/02 21:11:53;;;;;;;2.90;1.97;;;16.00;99.90;;;;;;4976240;28;20495;-83
2022/09/02 21:14:27;;;;;;;3.33;1.50;;;16.00;99.90;;;;;;4976526;28;20510;-85
2022/09/02 21:17:08;;;;;;;2.37;1.57;;;16.00;99.90;;;;;;4973814;28;20437;-84